createdAt,value
2022-08-08T00:00:52.540Z,8.23
2022-08-08T00:03:20.020Z,7.22
2022-08-08T00:06:03.410Z,7.40
2022-08-08T00:08:43.486Z,7.72
2022-08-08T00:12:10.093Z,7.70
2022-08-08T00:14:59.563Z,7.07
2022-08-08T00:18:01.666Z,7.30
2022-08-08T00:20:31.185Z,8.18
2022-08-08T00:23:08.032Z,7.43
2022-08-08T00:25:51.762Z,6.82
2022-08-08T00:28:34.414Z,7.57
2022-08-08T00:32:21.136Z,7.10
2022-08-08T00:37:03.357Z,6.95
2022-08-08T00:41:09.466Z,7.13
2022-08-08T00:42:50.642Z,6.70
2022-08-08T00:45:32.567Z,6.13
2022-08-08T00:48:05.048Z,6.40
2022-08-08T00:50:40.673Z,5.75
2022-08-08T00:53:19.351Z,6.07
2022-08-08T00:55:53.227Z,6.70
2022-08-08T00:58:36.182Z,6.80
2022-08-08T01:01:37.717Z,6.40
2022-08-08T01:04:30.248Z,6.47
2022-08-08T01:10:24.717Z,5.82
2022-08-08T01:13:43.608Z,5.68
2022-08-08T01:16:40.520Z,5.72
2022-08-08T01:19:51.967Z,6.03
2022-08-08T01:22:39.713Z,6.20
2022-08-08T01:26:11.645Z,6.43
2022-08-08T01:28:47.217Z,5.88
2022-08-08T01:32:05.668Z,6.10
2022-08-08T01:34:46.781Z,5.10
2022-08-08T01:37:51.214Z,5.20
2022-08-08T01:40:48.950Z,4.90
2022-08-08T01:43:38.472Z,5.32
2022-08-08T01:46:35.820Z,4.75
2022-08-08T01:49:37.146Z,5.95
2022-08-08T01:54:04.681Z,6.18
2022-08-08T01:56:26.535Z,5.90
2022-08-08T01:58:50.148Z,6.07
2022-08-08T02:02:03.226Z,5.88
2022-08-08T02:05:05.657Z,6.05
2022-08-08T02:07:55.336Z,6.35
2022-08-08T02:10:46.023Z,6.27
2022-08-08T02:13:53.785Z,6.53
2022-08-08T02:16:45.670Z,6.22
2022-08-08T02:19:56.914Z,6.20
2022-08-08T02:22:33.737Z,6.28
2022-08-08T02:25:07.184Z,5.80
2022-08-08T02:27:43.894Z,6.30
2022-08-08T02:30:20.947Z,6.57
2022-08-08T02:33:08.829Z,5.55
2022-08-08T02:36:03.869Z,5.70
2022-08-08T02:39:40.546Z,4.95
2022-08-08T02:42:11.420Z,5.05
2022-08-08T02:44:58.135Z,4.90
2022-08-08T02:48:02.721Z,4.30
2022-08-08T02:50:55.527Z,4.55
2022-08-08T02:53:32.312Z,4.63
2022-08-08T02:56:58.484Z,4.53
2022-08-08T02:59:57.660Z,4.97
2022-08-08T03:02:50.244Z,4.90
2022-08-08T03:05:23.579Z,5.10
2022-08-08T03:08:10.889Z,5.65
2022-08-08T03:11:25.646Z,5.05
2022-08-08T03:15:58.357Z,5.65
2022-08-08T03:16:57.363Z,5.68
2022-08-08T03:20:03.736Z,6.28
2022-08-08T03:22:43.264Z,5.90
2022-08-08T03:25:17.766Z,5.85
2022-08-08T03:27:57.708Z,6.45
2022-08-08T03:30:25.028Z,6.22
2022-08-08T03:33:55.766Z,6.38
2022-08-08T03:35:59.260Z,6.30
2022-08-08T03:38:53.438Z,6.00
2022-08-08T03:42:04.159Z,6.78
2022-08-08T03:44:02.458Z,6.22
2022-08-08T03:46:32.521Z,6.05
2022-08-08T03:49:59.090Z,6.65
2022-08-08T03:51:54.295Z,6.50
2022-08-08T03:54:41.459Z,5.85
2022-08-08T03:58:29.878Z,5.90
2022-08-08T04:00:18.624Z,5.95
2022-08-08T04:02:59.339Z,6.30
2022-08-08T04:05:35.583Z,6.40
2022-08-08T04:08:09.711Z,6.07
2022-08-08T04:10:37.371Z,5.95
2022-08-08T04:13:18.083Z,5.47
2022-08-08T04:15:54.675Z,5.65
2022-08-08T04:18:31.309Z,6.38
2022-08-08T04:20:58.046Z,6.50
2022-08-08T04:23:26.954Z,6.18
2022-08-08T04:26:14.088Z,6.05
2022-08-08T04:28:42.559Z,6.22
2022-08-08T04:31:10.943Z,6.45
2022-08-08T04:33:57.923Z,7.03
2022-08-08T04:36:26.886Z,6.85
2022-08-08T04:39:47.767Z,7.43
2022-08-08T04:41:40.822Z,7.32
2022-08-08T04:44:09.354Z,8.32
2022-08-08T04:46:36.198Z,8.25
2022-08-08T04:49:06.476Z,8.05
2022-08-08T04:51:57.325Z,8.57
2022-08-08T04:54:38.274Z,8.55
2022-08-08T04:57:09.520Z,7.75
2022-08-08T04:59:42.403Z,9.00
2022-08-08T05:02:09.723Z,8.07
2022-08-08T05:04:41.633Z,8.40
2022-08-08T05:07:11.894Z,8.75
2022-08-08T05:09:41.925Z,8.35
2022-08-08T05:12:20.530Z,8.63
2022-08-08T05:14:48.549Z,8.73
2022-08-08T05:17:15.397Z,8.85
2022-08-08T05:20:14.000Z,8.90
2022-08-08T05:22:29.987Z,8.50
2022-08-08T05:24:58.643Z,9.32
2022-08-08T05:27:25.421Z,8.52
2022-08-08T05:29:52.534Z,8.82
2022-08-08T05:32:19.695Z,8.27
2022-08-08T05:34:53.361Z,8.35
2022-08-08T05:37:52.207Z,8.02
2022-08-08T05:40:17.411Z,7.55
2022-08-08T05:42:51.833Z,7.82
2022-08-08T05:45:31.414Z,7.80
2022-08-08T05:48:09.075Z,8.48
2022-08-08T05:50:38.737Z,7.53
2022-08-08T05:53:54.800Z,7.00
2022-08-08T05:56:10.376Z,7.97
2022-08-08T05:58:57.721Z,7.75
2022-08-08T06:01:57.487Z,7.65
2022-08-08T06:04:24.326Z,7.28
2022-08-08T06:06:53.479Z,7.65
2022-08-08T06:10:00.491Z,7.50
2022-08-08T06:12:30.083Z,7.30
2022-08-08T06:15:03.268Z,7.18
2022-08-08T06:17:50.824Z,7.00
2022-08-08T06:20:26.246Z,6.22
2022-08-08T06:22:58.424Z,6.90
2022-08-08T06:26:34.921Z,7.15
2022-08-08T06:28:29.355Z,6.30
2022-08-08T06:31:00.802Z,6.43
2022-08-08T06:34:26.427Z,5.90
2022-08-08T06:36:53.978Z,5.22
2022-08-08T06:39:21.804Z,5.10
2022-08-08T06:41:57.322Z,4.95
2022-08-08T06:44:25.836Z,5.20
2022-08-08T06:46:57.720Z,4.78
2022-08-08T06:49:56.563Z,4.97
2022-08-08T06:52:11.542Z,4.28
2022-08-08T06:54:48.839Z,4.35
2022-08-08T06:57:16.141Z,4.60
2022-08-08T07:00:10.743Z,4.32
2022-08-08T07:02:33.252Z,4.00
2022-08-08T07:05:07.592Z,4.03
2022-08-08T07:07:59.857Z,3.92
2022-08-08T07:10:35.883Z,3.70
2022-08-08T07:13:10.263Z,3.50
2022-08-08T07:16:06.128Z,3.28
2022-08-08T07:18:40.516Z,3.72
2022-08-08T07:21:19.110Z,3.60
2022-08-08T07:24:03.286Z,3.17
2022-08-08T07:26:36.233Z,3.42
2022-08-08T07:29:05.617Z,3.60
2022-08-08T07:31:35.779Z,3.40
2022-08-08T07:34:08.862Z,3.80
2022-08-08T07:36:42.092Z,3.78
2022-08-08T07:39:29.598Z,3.10
2022-08-08T07:41:58.561Z,3.85
2022-08-08T07:44:40.642Z,3.70
2022-08-08T07:47:08.142Z,4.05
2022-08-08T07:49:36.262Z,3.83
2022-08-08T07:52:13.047Z,4.40
2022-08-08T07:54:51.336Z,4.75
2022-08-08T07:57:42.117Z,4.13
2022-08-08T08:00:17.120Z,3.78
2022-08-08T08:02:44.349Z,3.97
2022-08-08T08:05:33.647Z,4.30
2022-08-08T08:08:33.017Z,3.70
2022-08-08T08:11:00.090Z,3.47
2022-08-08T08:14:09.771Z,3.22
2022-08-08T08:16:41.342Z,3.10
2022-08-08T08:19:10.356Z,2.60
2022-08-08T08:24:32.151Z,2.95
2022-08-08T08:27:02.998Z,2.88
2022-08-08T08:29:30.998Z,3.15
2022-08-08T08:31:59.214Z,2.72
2022-08-08T08:34:32.275Z,3.08
2022-08-08T08:37:07.771Z,3.00
2022-08-08T08:39:59.481Z,2.83
2022-08-08T08:42:31.471Z,2.70
2022-08-08T08:45:21.239Z,2.50
2022-08-08T08:47:53.189Z,2.85
2022-08-08T08:50:33.051Z,2.58
2022-08-08T08:53:55.068Z,2.70
2022-08-08T08:56:02.620Z,2.20
2022-08-08T08:58:42.310Z,2.53
2022-08-08T09:01:18.520Z,2.50
2022-08-08T09:03:51.436Z,2.90
2022-08-08T09:06:28.475Z,3.00
2022-08-08T09:09:26.005Z,2.67
2022-08-08T09:12:06.367Z,2.50
2022-08-08T09:14:42.859Z,2.50
2022-08-08T09:17:15.773Z,2.30
2022-08-08T09:21:56.136Z,2.50
2022-08-08T09:22:35.100Z,2.17
2022-08-08T09:25:04.186Z,2.30
2022-08-08T09:27:57.037Z,2.00
2022-08-08T09:30:20.261Z,2.00
2022-08-08T09:33:11.920Z,1.92
2022-08-08T09:35:49.347Z,1.50
2022-08-08T09:38:54.345Z,1.92
2022-08-08T09:42:13.923Z,2.00
2022-08-08T09:44:57.041Z,2.10
2022-08-08T09:48:03.021Z,2.10
2022-08-08T09:50:32.499Z,1.85
2022-08-08T09:53:23.600Z,1.80
2022-08-08T09:56:04.527Z,1.80
2022-08-08T09:58:41.798Z,1.88
2022-08-08T10:01:15.022Z,2.10
2022-08-08T10:04:04.950Z,2.05
2022-08-08T10:06:35.688Z,1.65
2022-08-08T10:09:04.886Z,1.58
2022-08-08T10:12:26.446Z,1.60
2022-08-08T10:14:38.735Z,1.27
2022-08-08T10:17:38.500Z,1.50
2022-08-08T10:20:00.118Z,1.60
2022-08-08T10:22:29.912Z,1.88
2022-08-08T10:25:04.870Z,1.40
2022-08-08T10:27:42.138Z,1.40
2022-08-08T10:30:16.169Z,1.60
2022-08-08T10:33:00.457Z,1.88
2022-08-08T10:36:09.783Z,2.00
2022-08-08T10:38:21.887Z,2.05
2022-08-08T10:40:54.626Z,1.90
2022-08-08T10:43:23.068Z,1.70
2022-08-08T10:45:56.411Z,1.90
2022-08-08T10:48:55.947Z,1.60
2022-08-08T10:51:26.170Z,1.75
2022-08-08T10:53:57.247Z,1.50
2022-08-08T10:56:27.384Z,1.40
2022-08-08T10:59:00.287Z,1.83
2022-08-08T11:01:33.351Z,1.58
2022-08-08T11:04:02.511Z,1.63
2022-08-08T11:06:34.188Z,1.60
2022-08-08T11:09:15.050Z,1.70
2022-08-08T11:12:05.023Z,1.67
2022-08-08T11:14:33.280Z,1.70
2022-08-08T11:17:02.980Z,1.42
2022-08-08T11:19:33.638Z,1.70
2022-08-08T11:22:03.984Z,1.50
2022-08-08T11:24:35.740Z,1.58
2022-08-08T11:27:19.702Z,1.50
2022-08-08T11:30:19.316Z,1.40
2022-08-08T11:32:41.903Z,1.60
2022-08-08T11:35:25.013Z,1.80
2022-08-08T11:38:39.664Z,1.50
2022-08-08T11:40:52.663Z,1.60
2022-08-08T11:43:21.665Z,1.23
2022-08-08T11:46:17.855Z,1.40
2022-08-08T11:48:39.835Z,1.45
2022-08-08T11:51:38.411Z,1.60
2022-08-08T11:54:01.431Z,1.30
2022-08-08T11:56:42.166Z,1.45
2022-08-08T11:59:11.112Z,1.50
2022-08-08T12:01:38.733Z,1.45
2022-08-08T12:04:08.038Z,1.42
2022-08-08T12:06:34.998Z,1.30
2022-08-08T12:09:09.592Z,1.20
2022-08-08T12:11:44.223Z,1.30
2022-08-08T12:14:29.338Z,1.55
2022-08-08T12:16:57.191Z,1.30
2022-08-08T12:19:37.889Z,1.30
2022-08-08T12:22:13.461Z,1.40
2022-08-08T12:24:53.745Z,1.38
2022-08-08T12:27:26.389Z,1.20
2022-08-08T12:29:59.969Z,1.02
2022-08-08T12:32:31.311Z,1.20
2022-08-08T12:35:13.453Z,1.10
2022-08-08T12:38:00.955Z,1.30
2022-08-08T12:40:55.963Z,1.25
2022-08-08T12:43:32.683Z,1.20
2022-08-08T12:46:19.011Z,1.35
2022-08-08T12:51:58.596Z,1.10
2022-08-08T12:54:40.864Z,1.40
2022-08-08T12:57:24.232Z,1.23
2022-08-08T13:00:06.267Z,1.67
2022-08-08T13:02:51.228Z,1.30
2022-08-08T13:05:27.084Z,1.30
2022-08-08T13:08:16.855Z,1.27
2022-08-08T13:10:58.490Z,1.40
2022-08-08T13:13:34.735Z,1.38
2022-08-08T13:16:25.605Z,1.20
2022-08-08T13:19:05.454Z,1.30
2022-08-08T13:21:53.784Z,1.30
2022-08-08T13:24:40.904Z,1.05
2022-08-08T13:27:35.564Z,1.27
2022-08-08T13:30:06.386Z,1.80
2022-08-08T13:32:39.484Z,1.50
2022-08-08T13:35:11.737Z,1.40
2022-08-08T13:38:06.391Z,1.85
2022-08-08T13:40:35.213Z,1.35
2022-08-08T13:43:03.922Z,1.33
2022-08-08T13:45:31.485Z,1.10
2022-08-08T13:48:03.796Z,1.50
2022-08-08T13:50:49.215Z,1.40
2022-08-08T13:53:34.110Z,1.30
2022-08-08T13:56:11.037Z,1.20
2022-08-08T13:58:57.222Z,1.15
2022-08-08T14:01:32.722Z,1.13
2022-08-08T14:04:21.546Z,1.40
2022-08-08T14:06:48.508Z,1.50
2022-08-08T14:09:24.487Z,1.35
2022-08-08T14:12:00.286Z,1.30
2022-08-08T14:14:56.539Z,1.30
2022-08-08T14:17:57.907Z,1.25
2022-08-08T14:20:15.660Z,1.15
2022-08-08T14:23:20.720Z,1.40
2022-08-08T14:26:11.042Z,1.42
2022-08-08T14:28:39.961Z,1.20
2022-08-08T14:31:09.677Z,1.20
2022-08-08T14:33:37.328Z,1.40
2022-08-08T14:36:13.510Z,1.40
2022-08-08T14:38:52.651Z,1.40
2022-08-08T14:41:53.691Z,1.60
2022-08-08T14:44:21.069Z,1.30
2022-08-08T14:47:00.343Z,1.30
2022-08-08T14:49:51.523Z,1.30
2022-08-08T14:52:21.561Z,1.17
2022-08-08T14:54:49.942Z,1.23
2022-08-08T14:57:17.211Z,1.15
2022-08-08T14:59:50.942Z,1.30
2022-08-08T15:02:25.800Z,1.40
2022-08-08T15:04:57.825Z,1.10
2022-08-08T15:07:40.261Z,1.52
2022-08-08T15:10:09.440Z,1.50
2022-08-08T15:12:37.483Z,1.25
2022-08-08T15:15:11.066Z,1.23
2022-08-08T15:17:46.463Z,1.20
2022-08-08T15:20:14.789Z,1.30
2022-08-08T15:22:44.680Z,1.20
2022-08-08T15:25:17.553Z,1.20
2022-08-08T15:28:04.300Z,1.33
2022-08-08T15:30:40.870Z,1.20
2022-08-08T15:33:08.936Z,1.45
2022-08-08T15:35:37.432Z,1.33
2022-08-08T15:38:09.862Z,1.50
2022-08-08T15:40:39.673Z,1.45
2022-08-08T15:43:35.257Z,1.40
2022-08-08T15:45:57.938Z,1.20
2022-08-08T15:48:29.900Z,1.30
2022-08-08T15:51:07.169Z,1.50
2022-08-08T15:53:48.912Z,1.25
2022-08-08T15:56:16.684Z,1.30
2022-08-08T15:58:48.629Z,1.23
2022-08-08T16:01:16.153Z,1.25
2022-08-08T16:03:42.968Z,1.48
2022-08-08T16:06:14.449Z,1.27
2022-08-08T16:13:01.178Z,1.40
2022-08-08T16:13:11.481Z,1.58
2022-08-08T16:14:33.409Z,1.40
2022-08-08T16:17:00.983Z,1.40
2022-08-08T16:19:30.249Z,1.20
2022-08-08T16:21:58.197Z,1.17
2022-08-08T16:24:25.011Z,1.58
2022-08-08T16:26:51.832Z,1.50
2022-08-08T16:29:23.823Z,1.20
2022-08-08T16:32:08.293Z,1.33
2022-08-08T16:34:39.708Z,1.10
2022-08-08T16:37:07.169Z,1.40
2022-08-08T16:40:02.253Z,1.35
2022-08-08T16:42:20.666Z,1.48
2022-08-08T16:44:54.469Z,1.30
2022-08-08T16:47:31.666Z,1.47
2022-08-08T16:50:14.043Z,1.52
2022-08-08T16:55:02.596Z,1.33
2022-08-08T16:55:52.855Z,1.60
2022-08-08T16:58:21.829Z,1.35
2022-08-08T17:03:25.095Z,1.38
2022-08-08T17:06:35.573Z,1.33
2022-08-08T17:08:54.230Z,1.60
2022-08-08T17:11:20.927Z,1.33
2022-08-08T17:14:01.586Z,1.40
2022-08-08T17:16:29.156Z,1.17
2022-08-08T17:18:56.674Z,1.40
2022-08-08T17:21:26.265Z,1.27
2022-08-08T17:24:00.483Z,1.30
2022-08-08T17:26:29.775Z,1.40
2022-08-08T17:29:03.848Z,1.60
2022-08-08T17:31:44.743Z,1.60
2022-08-08T17:34:36.157Z,1.55
2022-08-08T17:37:03.852Z,1.80
2022-08-08T17:40:04.944Z,1.70
2022-08-08T17:42:23.052Z,1.80
2022-08-08T17:44:52.378Z,1.60
2022-08-08T17:47:23.877Z,3.85
2022-08-08T17:49:52.737Z,1.80
2022-08-08T17:52:22.982Z,1.98
2022-08-08T17:54:55.725Z,1.40
2022-08-08T17:57:23.483Z,1.90
2022-08-08T17:59:51.893Z,1.73
2022-08-08T18:02:28.627Z,1.60
2022-08-08T18:04:58.429Z,1.50
2022-08-08T18:08:02.573Z,1.73
2022-08-08T18:10:15.286Z,1.70
2022-08-08T18:12:44.467Z,1.73
2022-08-08T18:15:13.534Z,1.70
2022-08-08T18:18:09.094Z,1.63
2022-08-08T18:20:42.788Z,1.80
2022-08-08T18:23:15.288Z,1.60
2022-08-08T18:25:43.408Z,1.95
2022-08-08T18:28:12.912Z,1.67
2022-08-08T18:30:41.076Z,1.70
2022-08-08T18:33:10.632Z,1.80
2022-08-08T18:35:48.335Z,1.77
2022-08-08T18:38:17.017Z,1.75
2022-08-08T18:40:46.400Z,1.90
2022-08-08T18:43:14.880Z,1.48
2022-08-08T18:46:08.546Z,1.77
2022-08-08T18:48:30.173Z,1.88
2022-08-08T18:50:58.728Z,1.90
2022-08-08T18:54:00.256Z,1.80
2022-08-08T18:56:21.537Z,1.80
2022-08-08T18:58:49.422Z,1.50
2022-08-08T19:02:25.917Z,1.80
2022-08-08T19:04:10.891Z,2.15
2022-08-08T19:06:39.289Z,2.05
2022-08-08T19:09:12.973Z,2.10
2022-08-08T19:11:46.802Z,1.80
2022-08-08T19:14:20.549Z,1.75
2022-08-08T19:16:48.072Z,1.63
2022-08-08T19:19:15.380Z,2.00
2022-08-08T19:21:48.665Z,2.13
2022-08-08T19:24:34.148Z,2.53
2022-08-08T19:27:05.729Z,1.70
2022-08-08T19:29:34.623Z,2.05
2022-08-08T19:32:09.176Z,2.10
2022-08-08T19:34:41.599Z,2.10
2022-08-08T19:37:16.517Z,1.83
2022-08-08T19:39:45.620Z,2.13
2022-08-08T19:42:13.630Z,2.08
2022-08-08T19:44:45.365Z,2.25
2022-08-08T19:47:14.206Z,2.30
2022-08-08T19:49:43.630Z,2.15
2022-08-08T19:52:34.653Z,2.20
2022-08-08T19:55:12.725Z,2.65
2022-08-08T19:57:42.489Z,2.47
2022-08-08T20:00:30.213Z,2.60
2022-08-08T20:03:02.058Z,2.40
2022-08-08T20:06:14.053Z,2.80
2022-08-08T20:08:32.065Z,2.45
2022-08-08T20:11:00.674Z,2.58
2022-08-08T20:14:31.491Z,2.58
2022-08-08T20:16:20.439Z,3.00
2022-08-08T20:18:52.947Z,2.67
2022-08-08T20:21:25.812Z,2.92
2022-08-08T20:23:57.597Z,2.80
2022-08-08T20:26:27.489Z,2.70
2022-08-08T20:28:59.891Z,2.70
2022-08-08T20:31:28.248Z,2.80
2022-08-08T20:34:28.853Z,2.80
2022-08-08T20:37:03.097Z,3.15
2022-08-08T20:39:41.665Z,3.03
2022-08-08T20:42:20.590Z,2.60
2022-08-08T20:44:56.652Z,2.92
2022-08-08T20:47:26.062Z,2.95
2022-08-08T20:49:57.708Z,2.92
2022-08-08T20:54:58.796Z,2.85
2022-08-08T20:57:27.087Z,2.97
2022-08-08T20:59:55.920Z,2.70
2022-08-08T21:02:25.686Z,2.85
2022-08-08T21:05:01.278Z,2.50
2022-08-08T21:07:47.607Z,3.42
2022-08-08T21:10:16.895Z,2.60
2022-08-08T21:12:44.538Z,2.80
2022-08-08T21:15:16.736Z,2.70
2022-08-08T21:18:00.707Z,2.45
2022-08-08T21:20:34.036Z,2.65
2022-08-08T21:23:02.529Z,2.50
2022-08-08T21:25:33.062Z,2.25
2022-08-08T21:28:14.458Z,2.42
2022-08-08T21:30:45.279Z,2.25
2022-08-08T21:33:16.989Z,2.70
2022-08-08T21:36:14.882Z,2.47
2022-08-08T21:38:31.205Z,2.72
2022-08-08T21:40:58.048Z,2.83
2022-08-08T21:43:33.243Z,2.60
2022-08-08T21:48:05.442Z,2.92
2022-08-08T21:48:53.562Z,2.63
2022-08-08T21:54:18.802Z,2.58
2022-08-08T21:54:32.111Z,2.45
2022-08-08T21:56:59.120Z,2.90
2022-08-08T21:59:43.858Z,2.88
2022-08-08T22:02:15.842Z,3.05
2022-08-08T22:04:43.033Z,2.63
2022-08-08T22:07:09.743Z,2.50
2022-08-08T22:09:41.101Z,3.00
2022-08-08T22:12:17.002Z,2.83
2022-08-08T22:14:49.977Z,3.00
2022-08-08T22:17:18.336Z,3.17
2022-08-08T22:20:13.045Z,2.65
2022-08-08T22:22:37.965Z,2.80
2022-08-08T22:25:12.431Z,3.00
2022-08-08T22:28:02.887Z,2.30
2022-08-08T22:30:39.563Z,2.40
2022-08-08T22:33:22.252Z,2.80
2022-08-08T22:36:04.611Z,2.55
2022-08-08T22:38:47.853Z,2.50
2022-08-08T22:41:16.419Z,2.92
2022-08-08T22:44:02.786Z,2.50
2022-08-08T22:46:33.031Z,2.85
2022-08-08T22:49:00.168Z,2.45
2022-08-08T22:51:28.951Z,3.00
2022-08-08T22:54:32.026Z,3.05
2022-08-08T22:56:43.229Z,2.85
2022-08-08T22:59:18.595Z,3.47
2022-08-08T23:02:03.713Z,2.90
2022-08-08T23:04:33.476Z,3.03
2022-08-08T23:07:02.800Z,3.08
2022-08-08T23:09:31.189Z,2.88
2022-08-08T23:12:28.308Z,2.80
2022-08-08T23:14:59.960Z,2.92
2022-08-08T23:17:46.881Z,3.00
2022-08-08T23:20:21.176Z,3.08
2022-08-08T23:22:55.065Z,2.88
2022-08-08T23:25:22.059Z,3.05
2022-08-08T23:27:49.257Z,2.85
2022-08-08T23:30:22.489Z,3.72
2022-08-08T23:32:49.918Z,2.92
2022-08-08T23:35:18.836Z,3.35
2022-08-08T23:38:01.086Z,3.58
2022-08-08T23:40:29.506Z,3.10
2022-08-08T23:42:57.082Z,3.30
2022-08-08T23:49:01.303Z,2.75
2022-08-08T23:49:04.182Z,3.30
2022-08-08T23:50:58.427Z,3.35
2022-08-08T23:54:05.561Z,3.33
2022-08-08T23:56:12.645Z,3.17
2022-08-08T23:58:39.622Z,3.75
